Time;durP1;ratioP1;P1;durP2;ratioP2;P2;SDS_P1;SDS_P2;PMS_P1;PMS_P2;Temp;Humidity;BMP_temperature;BMP_pressure;BME280_temperature;BME280_humidity;BME280_pressure;Samples;Min_cycle;Max_cycle;Signal;HPM_P1;HPM_P2
2021/07/17 00:02:23;;;;;;;32.40;12.07;;;;;;;19.48;88.98;101787.69;5052889;28;20033;-73
2021/07/17 00:04:48;;;;;;;35.33;11.40;;;;;;;19.41;89.09;101776.84;5069334;28;20139;-73
2021/07/17 00:07:13;;;;;;;30.23;12.90;;;;;;;19.37;89.04;101792.63;5069404;28;20139;-73
2021/07/17 00:09:39;;;;;;;31.73;12.75;;;;;;;19.29;89.39;101781.94;5069581;28;20037;-73
2021/07/17 00:12:05;;;;;;;27.58;11.32;;;;;;;19.28;89.39;101764.00;5070516;28;20036;-73
2021/07/17 00:14:31;;;;;;;26.95;12.77;;;;;;;19.28;89.89;101780.25;5052659;28;20089;-73
2021/07/17 00:16:56;;;;;;;29.90;12.67;;;;;;;19.39;90.02;101789.72;5069927;28;20036;-73
2021/07/17 00:19:22;;;;;;;27.77;11.83;;;;;;;19.38;90.06;101778.03;5069606;28;20036;-73
2021/07/17 00:21:47;;;;;;;18.95;10.13;;;;;;;19.36;90.05;101788.25;5069164;28;20036;-73
2021/07/17 00:24:13;;;;;;;27.90;10.97;;;;;;;19.43;90.17;101823.47;5069026;28;20041;-73
2021/07/17 00:26:38;;;;;;;29.07;12.97;;;;;;;19.53;89.73;101812.34;5068863;28;20483;-73
2021/07/17 00:29:03;;;;;;;25.73;10.27;;;;;;;19.54;89.79;101816.72;5068849;28;20024;-73
2021/07/17 00:31:29;;;;;;;19.63;10.40;;;;;;;19.54;89.91;101803.16;5068916;28;20036;-73
2021/07/17 00:33:57;;;;;;;22.95;12.50;;;;;;;19.51;89.22;101790.03;5068990;28;20040;-74
2021/07/17 00:36:22;;;;;;;36.05;13.23;;;;;;;19.66;89.25;101804.31;5068410;28;20037;-73
2021/07/17 00:38:47;;;;;;;30.53;11.83;;;;;;;19.52;89.15;101797.13;5068101;28;20157;-73
2021/07/17 00:41:12;;;;;;;23.50;12.10;;;;;;;19.56;89.15;101804.66;5069026;28;20044;-73
2021/07/17 00:43:38;;;;;;;24.20;12.57;;;;;;;19.44;89.02;101775.59;5069714;28;20083;-73
2021/07/17 00:46:04;;;;;;;22.60;12.98;;;;;;;19.54;89.09;101778.78;5068456;28;20032;-73
2021/07/17 00:48:30;;;;;;;23.35;13.20;;;;;;;19.52;89.24;101767.31;5068896;28;20083;-73
2021/07/17 00:50:56;;;;;;;19.85;12.20;;;;;;;19.57;88.94;101808.19;5068636;28;20052;-73
2021/07/17 00:53:21;;;;;;;19.40;11.53;;;;;;;19.49;88.94;101778.56;5069478;28;20484;-73
2021/07/17 00:55:49;;;;;;;23.60;11.10;;;;;;;19.54;89.19;101793.16;5051688;28;20046;-73
2021/07/17 00:58:22;;;;;;;18.08;12.00;;;;;;;19.68;88.77;101801.41;5068643;28;20032;-73
2021/07/17 01:00:49;;;;;;;15.70;11.45;;;;;;;19.70;88.23;101816.47;5068557;28;20036;-73
2021/07/17 01:03:16;;;;;;;17.30;10.80;;;;;;;19.67;88.61;101799.75;5068482;28;20025;-74
2021/07/17 01:05:42;;;;;;;14.20;10.45;;;;;;;19.72;88.42;101808.16;5066645;28;20349;-73
2021/07/17 01:08:07;;;;;;;16.10;11.53;;;;;;;19.74;88.53;101803.38;5051642;28;20039;-73
2021/07/17 01:10:33;;;;;;;17.43;11.30;;;;;;;19.74;88.86;101789.81;5068735;28;20050;-73
2021/07/17 01:12:58;;;;;;;17.92;10.63;;;;;;;19.77;88.31;101776.69;5068136;28;20119;-74
2021/07/17 01:15:24;;;;;;;20.37;11.43;;;;;;;19.71;88.19;101799.16;5068364;28;20051;-73
2021/07/17 01:17:50;;;;;;;22.40;11.07;;;;;;;19.65;88.73;101807.22;5068028;28;20036;-73
2021/07/17 01:20:20;;;;;;;;;;;;;;;19.72;88.14;101803.56;5052246;28;20501;-73
2021/07/17 01:22:45;;;;;;;23.65;10.68;;;;;;;19.71;88.12;101807.28;5068271;28;20474;-74
2021/07/17 01:25:14;;;;;;;17.30;10.23;;;;;;;19.68;88.03;101802.28;5068204;28;20136;-73
2021/07/17 01:27:40;;;;;;;16.75;8.90;;;;;;;19.71;87.70;101791.03;5067832;28;20469;-74
2021/07/17 01:30:07;;;;;;;;;;;;;;;19.72;87.08;101795.44;5068640;28;20032;-74
2021/07/17 01:32:32;;;;;;;12.15;8.95;;;;;;;19.66;86.73;101790.75;5051305;28;19923;-74
2021/07/17 01:34:58;;;;;;;11.47;8.10;;;;;;;19.64;86.33;101790.13;5051521;28;20644;-73
2021/07/17 01:37:23;;;;;;;12.23;7.87;;;;;;;19.69;85.93;101786.84;5067830;28;20105;-74
2021/07/17 01:39:48;;;;;;;14.70;7.60;;;;;;;19.67;85.69;101787.03;5068140;28;20042;-74
2021/07/17 01:42:14;;;;;;;12.43;8.70;;;;;;;19.61;85.80;101788.63;5051246;28;20040;-74
2021/07/17 01:44:44;;;;;;;12.70;7.65;;;;;;;19.64;85.57;101800.13;5068089;28;20028;-73
2021/07/17 01:47:14;;;;;;;16.55;7.53;;;;;;;19.69;85.51;101800.38;5068746;28;20040;-73
2021/07/17 01:49:40;;;;;;;10.32;7.38;;;;;;;19.67;85.72;101797.03;5070714;28;20059;-74
2021/07/17 01:52:06;;;;;;;11.75;8.23;;;;;;;19.63;85.72;101803.88;5075533;28;20037;-74
2021/07/17 01:54:33;;;;;;;12.50;8.15;;;;;;;19.58;85.97;101796.34;5057942;28;20044;-74
2021/07/17 01:57:00;;;;;;;13.95;7.20;;;;;;;19.52;86.29;101797.13;5075152;28;20025;-73
2021/07/17 01:59:25;;;;;;;12.50;8.30;;;;;;;19.47;86.19;101786.03;5075643;28;20036;-74
2021/07/17 02:01:51;;;;;;;12.87;7.97;;;;;;;19.48;85.77;101793.13;5074422;28;20412;-74
2021/07/17 02:04:16;;;;;;;13.23;7.33;;;;;;;19.39;86.46;101787.03;5075407;28;20047;-74
2021/07/17 02:06:43;;;;;;;11.93;7.20;;;;;;;19.35;86.60;101786.56;5074353;28;20028;-73
2021/07/17 02:09:08;;;;;;;8.63;6.83;;;;;;;19.40;85.90;101781.38;5057916;28;20691;-73
2021/07/17 02:11:34;;;;;;;9.10;6.80;;;;;;;19.32;85.86;101788.84;5057715;28;20333;-74
2021/07/17 02:13:59;;;;;;;12.27;7.60;;;;;;;19.27;85.89;101784.00;5057390;28;20056;-73
2021/07/17 02:16:25;;;;;;;14.80;7.60;;;;;;;19.26;85.71;101784.19;5074193;28;20036;-74
2021/07/17 02:18:50;;;;;;;11.35;6.78;;;;;;;19.20;85.48;101777.69;5074396;28;20044;-73
2021/07/17 02:21:16;;;;;;;11.25;7.65;;;;;;;19.28;85.05;101780.25;5075391;28;20124;-73
2021/07/17 02:23:43;;;;;;;10.52;6.22;;;;;;;19.24;85.14;101783.53;5074244;28;20032;-73
2021/07/17 02:26:08;;;;;;;;;;;;;;;19.20;85.37;101780.41;5075168;28;20028;-73
2021/07/17 02:28:34;;;;;;;;;;;;;;;19.17;85.04;101780.78;5074509;28;20036;-74
2021/07/17 02:31:00;;;;;;;15.43;7.18;;;;;;;19.12;84.77;101777.81;5074353;28;19944;-73
2021/07/17 02:33:25;;;;;;;9.13;6.40;;;;;;;19.01;85.24;101775.63;5074966;28;20071;-73
2021/07/17 02:35:51;;;;;;;7.43;6.53;;;;;;;19.01;84.98;101768.38;5056931;28;20056;-73
2021/07/17 02:38:16;;;;;;;8.50;6.47;;;;;;;19.08;84.46;101771.97;5057376;28;20029;-74
2021/07/17 02:40:42;;;;;;;8.90;6.90;;;;;;;19.01;84.46;101773.78;5074512;28;20110;-74
2021/07/17 02:43:07;;;;;;;7.07;5.40;;;;;;;18.95;85.09;101772.66;5073970;28;20366;-74
2021/07/17 02:45:33;;;;;;;10.83;6.47;;;;;;;18.94;85.03;101772.84;5057363;28;20110;-73
2021/07/17 02:47:58;;;;;;;11.00;6.50;;;;;;;18.97;84.72;101789.56;5074697;28;20036;-73
2021/07/17 02:50:24;;;;;;;8.77;5.97;;;;;;;18.79;85.66;101772.91;5074062;28;20107;-73
2021/07/17 02:52:49;;;;;;;11.53;6.37;;;;;;;18.87;85.10;101783.63;5074056;28;20040;-79
2021/07/17 02:55:15;;;;;;;9.82;5.93;;;;;;;18.74;85.71;101773.47;5073854;28;20075;-80
2021/07/17 02:57:42;;;;;;;10.13;5.70;;;;;;;18.77;84.81;101769.56;5074201;28;20119;-79
2021/07/17 03:00:08;;;;;;;;;;;;;;;18.71;84.76;101765.72;5058151;28;20039;-79
2021/07/17 03:02:33;;;;;;;7.65;5.20;;;;;;;18.66;83.84;101770.03;5070525;28;19916;-79
2021/07/17 03:04:59;;;;;;;7.57;5.17;;;;;;;18.58;84.02;101762.03;5070705;28;20021;-79
2021/07/17 03:07:24;;;;;;;8.63;5.30;;;;;;;18.53;83.55;101776.97;5070740;28;20477;-79
2021/07/17 03:09:50;;;;;;;13.53;5.47;;;;;;;18.39;83.64;101782.41;5070846;28;20080;-79
2021/07/17 03:12:15;;;;;;;9.15;5.65;;;;;;;18.31;83.52;101777.94;5070797;28;20025;-78
2021/07/17 03:14:41;;;;;;;12.27;5.20;;;;;;;18.22;83.60;101760.16;5070874;28;20624;-79
2021/07/17 03:17:06;;;;;;;12.20;6.20;;;;;;;18.20;83.35;101767.63;5070530;28;20081;-80
2021/07/17 03:19:31;;;;;;;7.57;4.73;;;;;;;18.12;82.59;101760.44;5070841;28;20032;-79
2021/07/17 03:21:57;;;;;;;6.97;4.33;;;;;;;18.21;82.37;101774.69;5071733;28;20024;-79
2021/07/17 03:24:22;;;;;;;10.00;4.37;;;;;;;18.17;82.24;101776.94;5053647;28;20446;-79
2021/07/17 03:26:48;;;;;;;7.72;4.75;;;;;;;18.09;82.40;101766.22;5071556;28;20142;-79
2021/07/17 03:29:13;;;;;;;6.93;4.30;;;;;;;17.98;82.44;101767.53;5070355;28;20110;-79
2021/07/17 03:31:39;;;;;;;8.40;4.00;;;;;;;18.14;81.89;101780.00;5070670;28;20041;-80
2021/07/17 03:34:05;;;;;;;7.00;4.55;;;;;;;18.13;81.90;101778.34;5071214;28;20501;-79
2021/07/17 03:36:30;;;;;;;12.82;4.63;;;;;;;17.92;81.90;101754.78;5071311;28;20068;-79
2021/07/17 03:38:56;;;;;;;6.00;3.77;;;;;;;17.99;81.96;101766.50;5071133;28;20041;-78
2021/07/17 03:41:21;;;;;;;9.38;5.15;;;;;;;17.98;81.99;101762.13;5069855;28;20056;-79
2021/07/17 03:43:47;;;;;;;12.57;6.23;;;;;;;17.85;82.54;101762.78;5070438;28;20105;-79
2021/07/17 03:46:13;;;;;;;12.73;4.53;;;;;;;17.89;82.76;101760.56;5069824;28;20037;-79
2021/07/17 03:48:38;;;;;;;8.85;3.97;;;;;;;17.92;81.12;101768.28;5071395;28;20020;-79
2021/07/17 03:51:05;;;;;;;12.87;3.87;;;;;;;18.06;80.44;101772.84;5070181;28;20043;-80
2021/07/17 03:53:31;;;;;;;11.57;4.35;;;;;;;18.00;80.84;101764.63;5070703;28;20038;-80
2021/07/17 03:55:56;;;;;;;7.95;3.95;;;;;;;18.01;80.12;101761.75;5069241;28;20391;-81
2021/07/17 03:58:22;;;;;;;6.17;3.73;;;;;;;18.01;80.56;101769.03;5070008;28;20437;-79
2021/07/17 04:00:48;;;;;;;6.78;3.65;;;;;;;17.98;79.99;101762.13;5070112;28;20044;-79
2021/07/17 04:03:13;;;;;;;10.20;3.38;;;;;;;17.89;79.88;101771.34;5070619;28;20092;-79
2021/07/17 04:05:39;;;;;;;6.80;3.53;;;;;;;17.85;80.20;101770.03;5069861;28;20083;-80
2021/07/17 04:08:04;;;;;;;10.47;4.37;;;;;;;17.92;79.99;101776.38;5070711;28;20274;-79
2021/07/17 04:10:30;;;;;;;7.18;3.55;;;;;;;17.91;80.30;101778.25;5070889;28;20032;-79
2021/07/17 04:12:55;;;;;;;13.52;3.72;;;;;;;17.94;80.04;101779.75;5052021;28;20361;-79
2021/07/17 04:15:21;;;;;;;7.07;3.40;;;;;;;17.90;80.00;101773.03;5070599;28;20116;-79
2021/07/17 04:17:46;;;;;;;10.07;3.00;;;;;;;17.83;80.17;101767.53;5070508;28;20031;-79
2021/07/17 04:20:13;;;;;;;7.67;3.20;;;;;;;17.92;79.73;101768.28;5069826;28;20351;-79
2021/07/17 04:22:39;;;;;;;6.68;3.38;;;;;;;17.95;79.95;101770.59;5070508;28;20032;-79
2021/07/17 04:25:05;;;;;;;8.90;3.50;;;;;;;17.88;79.32;101775.06;5052836;28;20442;-79
2021/07/17 04:27:31;;;;;;;10.00;3.17;;;;;;;17.91;78.54;101771.97;5069133;28;20064;-78
2021/07/17 04:29:56;;;;;;;11.60;3.80;;;;;;;17.70;78.79;101770.00;5069558;28;20477;-79
2021/07/17 04:32:22;;;;;;;11.17;3.50;;;;;;;17.89;77.54;101774.06;5070210;28;20036;-79
2021/07/17 04:34:47;;;;;;;7.07;3.13;;;;;;;17.85;77.64;101772.75;5069414;28;20032;-79
2021/07/17 04:37:18;;;;;;;10.33;2.83;;;;;;;17.90;77.65;101773.84;5069065;28;20499;-79
2021/07/17 04:39:44;;;;;;;4.40;2.75;;;;;;;17.92;76.52;101774.50;5069211;28;20078;-79
2021/07/17 04:42:10;;;;;;;;;;;;;;;17.94;76.12;101777.03;5069356;28;20024;-79
2021/07/17 04:44:35;;;;;;;;;;;;;;;17.89;75.16;101776.75;5070440;28;19974;-80
2021/07/17 04:47:01;;;;;;;7.60;3.20;;;;;;;17.88;75.95;101766.97;5051919;28;20541;-79
2021/07/17 04:49:26;;;;;;;6.73;2.50;;;;;;;17.82;74.25;101778.53;5070071;28;20028;-79
2021/07/17 04:51:51;;;;;;;7.60;3.20;;;;;;;17.85;74.90;101781.69;5069706;28;20071;-79
2021/07/17 04:54:17;;;;;;;5.57;2.67;;;;;;;17.97;75.58;101781.22;5068707;28;20526;-79
2021/07/17 04:56:43;;;;;;;10.50;3.25;;;;;;;17.90;74.75;101770.31;5068584;28;20111;-79
2021/07/17 04:59:08;;;;;;;5.73;2.67;;;;;;;17.80;74.14;101778.66;5068977;28;20048;-79
2021/07/17 05:01:33;;;;;;;5.50;3.00;;;;;;;17.90;73.70;101783.81;5068552;28;20743;-79
2021/07/17 05:03:59;;;;;;;5.43;2.80;;;;;;;18.05;72.83;101786.53;5069624;28;20036;-79
2021/07/17 05:06:24;;;;;;;7.77;3.17;;;;;;;18.06;74.28;101793.63;5069343;28;20032;-79
2021/07/17 05:08:49;;;;;;;8.50;2.93;;;;;;;18.10;72.65;101781.41;5068677;28;20512;-80
2021/07/17 05:11:15;;;;;;;8.07;3.17;;;;;;;18.21;72.56;101789.03;5068520;28;20089;-79
2021/07/17 05:13:40;;;;;;;10.10;3.00;;;;;;;18.37;73.15;101796.09;5069424;28;20043;-78
2021/07/17 05:16:05;;;;;;;7.30;2.97;;;;;;;18.40;70.81;101803.00;5069127;28;20063;-80
2021/07/17 05:18:32;;;;;;;7.70;2.53;;;;;;;18.47;70.75;101810.19;5068347;28;20573;-79
2021/07/17 05:20:58;;;;;;;13.40;2.97;;;;;;;18.36;70.81;101797.16;5069194;28;20037;-78
2021/07/17 05:23:24;;;;;;;4.33;2.40;;;;;;;18.61;70.64;101815.75;5069053;28;20471;-78
2021/07/17 05:25:50;;;;;;;;;;;;;;;18.70;70.50;101814.59;5067220;28;20500;-79
2021/07/17 05:28:16;;;;;;;7.13;2.72;;;;;;;18.62;68.91;101788.50;5068053;28;19923;-79
2021/07/17 05:30:42;;;;;;;10.93;3.30;;;;;;;18.65;69.71;101806.22;5068235;28;20052;-78
2021/07/17 05:33:07;;;;;;;8.37;3.07;;;;;;;18.97;69.08;101811.19;5068921;28;20041;-78
2021/07/17 05:35:32;;;;;;;12.70;3.27;;;;;;;19.46;67.70;101825.81;5067935;28;20029;-79
2021/07/17 05:37:59;;;;;;;4.50;2.00;;;;;;;20.26;64.21;101836.44;5050842;28;20032;-78
2021/07/17 05:40:24;;;;;;;7.88;2.60;;;;;;;20.95;63.08;101857.19;5069039;28;20032;-79
2021/07/17 05:42:50;;;;;;;5.03;2.53;;;;;;;21.59;61.83;101869.47;5067840;28;20552;-78
2021/07/17 05:45:15;;;;;;;9.40;3.50;;;;;;;22.29;59.73;101876.09;5068810;28;20036;-78
2021/07/17 05:47:41;;;;;;;7.13;2.50;;;;;;;22.93;58.11;101879.81;5067536;28;20629;-78
2021/07/17 05:50:07;;;;;;;6.00;2.40;;;;;;;23.27;56.26;101882.38;5067761;28;20111;-79
2021/07/17 05:52:32;;;;;;;8.82;2.92;;;;;;;23.35;55.83;101871.22;5068515;28;20509;-78
2021/07/17 05:54:58;;;;;;;9.50;2.40;;;;;;;23.13;55.83;101860.69;5067631;28;20036;-79
2021/07/17 05:57:23;;;;;;;10.60;3.17;;;;;;;23.23;55.22;101864.81;5067465;28;20036;-78
2021/07/17 05:59:49;;;;;;;9.60;2.83;;;;;;;23.52;54.04;101866.91;5067779;28;20118;-78
2021/07/17 06:02:14;;;;;;;9.50;2.90;;;;;;;23.45;55.43;101860.66;5051104;28;20044;-79
2021/07/17 06:04:39;;;;;;;10.07;2.73;;;;;;;24.04;53.74;101876.75;5067464;28;20266;-79
2021/07/17 06:07:05;;;;;;;11.67;3.40;;;;;;;24.30;52.61;101875.66;5067731;28;20391;-78
2021/07/17 06:09:30;;;;;;;10.80;2.70;;;;;;;24.43;51.45;101880.97;5068073;28;20033;-80
2021/07/17 06:11:55;;;;;;;5.13;2.13;;;;;;;24.09;53.66;101869.59;5068785;28;20357;-79
2021/07/17 06:14:21;;;;;;;8.63;2.30;;;;;;;24.19;53.85;101863.59;5067696;28;20079;-79
2021/07/17 06:16:47;;;;;;;7.70;2.75;;;;;;;23.15;54.89;101836.78;5068442;28;20032;-78
2021/07/17 06:19:12;;;;;;;7.93;2.53;;;;;;;23.42;55.59;101847.50;5067449;28;20025;-78
2021/07/17 06:21:39;;;;;;;7.27;2.30;;;;;;;23.52;54.01;101858.72;5067467;28;20290;-78
2021/07/17 06:24:05;;;;;;;6.35;2.95;;;;;;;23.42;54.29;101846.66;5068375;28;20426;-79
2021/07/17 06:26:31;;;;;;;9.30;2.72;;;;;;;23.28;55.92;101840.47;5050652;28;20020;-79
2021/07/17 06:28:57;;;;;;;7.60;2.88;;;;;;;24.30;53.29;101872.91;5067446;28;20056;-78
2021/07/17 06:31:22;;;;;;;7.25;3.17;;;;;;;23.88;55.22;101854.47;5067575;28;20426;-78
2021/07/17 06:33:48;;;;;;;7.85;2.50;;;;;;;23.97;53.79;101855.84;5068213;28;20533;-78
2021/07/17 06:36:15;;;;;;;14.07;3.45;;;;;;;23.75;55.02;101851.88;5067669;28;20040;-77
2021/07/17 06:38:40;;;;;;;8.43;2.85;;;;;;;24.08;53.18;101858.91;5071186;28;20045;-78
2021/07/17 06:41:05;;;;;;;9.87;2.70;;;;;;;23.76;54.30;101842.63;5070682;28;20020;-79
2021/07/17 06:43:31;;;;;;;12.00;2.50;;;;;;;24.21;53.18;101858.75;5054368;28;20290;-78
2021/07/17 06:45:56;;;;;;;11.20;3.30;;;;;;;23.58;55.25;101843.38;5071678;28;20446;-78
2021/07/17 06:48:22;;;;;;;6.53;2.30;;;;;;;24.59;52.85;101874.09;5071089;28;20038;-78
2021/07/17 06:50:48;;;;;;;9.27;2.83;;;;;;;24.97;50.87;101868.34;5071941;28;20032;-78
2021/07/17 06:53:14;;;;;;;6.47;2.15;;;;;;;24.80;50.81;101873.59;5070669;28;20067;-78
2021/07/17 06:55:39;;;;;;;;;;;;;;;24.35;53.37;101863.00;5070990;28;20056;-79
2021/07/17 06:58:05;;;;;;;12.55;3.90;;;;;;;24.19;53.53;101858.16;5070546;28;19990;-79
2021/07/17 07:00:33;;;;;;;9.60;3.03;;;;;;;23.40;54.63;101827.81;5054067;28;20036;-79
2021/07/17 07:02:59;;;;;;;10.40;2.97;;;;;;;23.64;54.63;101834.31;5071788;28;20115;-78
2021/07/17 07:05:25;;;;;;;11.13;2.97;;;;;;;23.38;55.19;101827.19;5071562;28;20476;-79
2021/07/17 07:07:50;;;;;;;7.53;2.63;;;;;;;23.66;54.48;101845.00;5070383;28;20033;-79
2021/07/17 07:10:15;;;;;;;11.43;3.07;;;;;;;24.27;52.71;101857.00;5071718;28;20020;-79
2021/07/17 07:12:41;;;;;;;6.97;3.07;;;;;;;24.31;53.63;101856.34;5071585;28;20371;-78
2021/07/17 07:15:08;;;;;;;10.60;2.77;;;;;;;24.91;51.23;101871.16;5070475;28;20467;-79
2021/07/17 07:17:34;;;;;;;7.78;2.83;;;;;;;24.95;52.38;101875.09;5071265;28;20078;-79
2021/07/17 07:20:00;;;;;;;8.20;2.53;;;;;;;25.30;50.84;101885.34;5053864;28;20044;-79
2021/07/17 07:22:25;;;;;;;8.55;2.85;;;;;;;24.64;52.97;101857.84;5053676;28;20055;-79
2021/07/17 07:24:51;;;;;;;10.65;3.20;;;;;;;25.07;49.66;101854.09;5070253;28;20051;-79
2021/07/17 07:27:16;;;;;;;7.50;3.40;;;;;;;23.80;53.13;101822.03;5070204;28;20036;-79
2021/07/17 07:29:41;;;;;;;11.43;2.47;;;;;;;24.25;53.85;101848.22;5070474;28;20119;-79
2021/07/17 07:32:07;;;;;;;11.70;3.37;;;;;;;24.30;52.31;101843.72;5071390;28;20036;-80
2021/07/17 07:34:32;;;;;;;7.18;2.90;;;;;;;24.09;52.60;101830.53;5070278;28;20036;-81
2021/07/17 07:36:58;;;;;;;12.23;3.05;;;;;;;24.26;51.69;101838.97;5070987;28;20068;-78
2021/07/17 07:39:23;;;;;;;8.07;2.42;;;;;;;24.22;53.50;101841.31;5070244;28;20115;-79
2021/07/17 07:41:49;;;;;;;8.55;2.58;;;;;;;24.73;51.58;101845.56;5052696;28;20033;-79
2021/07/17 07:44:14;;;;;;;9.07;2.60;;;;;;;24.36;54.58;101831.91;5070245;28;20098;-78
2021/07/17 07:46:40;;;;;;;10.93;2.83;;;;;;;24.58;52.26;101836.91;5070697;28;20646;-78
2021/07/17 07:49:06;;;;;;;10.70;3.20;;;;;;;24.81;52.15;101844.41;5069646;28;20040;-79
2021/07/17 07:51:32;;;;;;;14.85;3.40;;;;;;;24.72;52.86;101835.69;5070967;28;20033;-78
2021/07/17 07:53:57;;;;;;;10.80;2.80;;;;;;;23.87;53.30;101811.06;5070989;28;20038;-78
2021/07/17 07:56:23;;;;;;;8.93;3.05;;;;;;;23.76;53.17;101809.91;5070559;28;20033;-78
2021/07/17 07:58:48;;;;;;;13.80;2.50;;;;;;;23.72;54.25;101816.84;5070929;28;20037;-79
2021/07/17 08:01:14;;;;;;;9.02;3.05;;;;;;;24.31;54.22;101833.66;5069869;28;20024;-77
2021/07/17 08:03:39;;;;;;;13.40;3.30;;;;;;;24.78;53.51;101842.97;5053020;28;20645;-78
2021/07/17 08:06:05;;;;;;;7.73;3.43;;;;;;;25.08;51.00;101847.59;5069258;28;20163;-77
2021/07/17 08:08:30;;;;;;;9.65;2.70;;;;;;;24.91;51.33;101843.84;5069682;28;20024;-79
2021/07/17 08:10:56;;;;;;;13.98;3.13;;;;;;;24.50;51.93;101818.16;5070553;28;20036;-78
2021/07/17 08:13:21;;;;;;;10.60;3.10;;;;;;;23.60;54.53;101803.94;5069382;28;20796;-78
2021/07/17 08:15:47;;;;;;;10.63;2.93;;;;;;;23.80;54.26;101794.75;5052431;28;20048;-78
2021/07/17 08:18:12;;;;;;;5.85;2.50;;;;;;;24.39;54.45;101819.69;5069243;28;20710;-78
2021/07/17 08:20:40;;;;;;;10.10;2.90;;;;;;;24.66;51.99;101813.97;5070496;28;20471;-79
2021/07/17 08:23:06;;;;;;;6.78;2.65;;;;;;;24.50;51.09;101777.19;5068892;28;20028;-79
2021/07/17 08:25:31;;;;;;;10.88;2.83;;;;;;;24.12;53.00;101825.47;5069826;28;20028;-78
2021/07/17 08:27:57;;;;;;;11.90;3.27;;;;;;;23.99;53.43;101815.53;5069483;28;20047;-78
2021/07/17 08:30:22;;;;;;;8.87;2.70;;;;;;;24.70;52.96;101832.38;5068779;28;20286;-78
2021/07/17 08:32:47;;;;;;;8.18;2.35;;;;;;;25.46;51.62;101851.88;5051901;28;20037;-79
2021/07/17 08:35:13;;;;;;;6.40;3.23;;;;;;;25.56;50.67;101846.66;5068719;28;20089;-79
2021/07/17 08:37:39;;;;;;;11.57;3.50;;;;;;;24.99;50.68;101829.88;5068328;28;20462;-78
2021/07/17 08:40:07;;;;;;;7.15;2.63;;;;;;;25.73;50.19;101841.34;5051961;28;20024;-79
2021/07/17 08:42:36;;;;;;;13.15;3.00;;;;;;;25.93;48.21;101846.47;5069311;28;20091;-78
2021/07/17 08:45:04;;;;;;;8.30;2.85;;;;;;;25.53;50.05;101817.06;5051765;28;20553;-78
2021/07/17 08:47:38;;;;;;;9.05;3.05;;;;;;;25.45;49.80;101823.72;5068073;28;20044;-78
2021/07/17 08:50:05;;;;;;;12.88;3.05;;;;;;;25.52;49.15;101828.22;5051857;28;20056;-79
2021/07/17 08:52:34;;;;;;;7.10;2.63;;;;;;;25.44;48.79;101818.47;5068111;28;20036;-79
2021/07/17 08:55:05;;;;;;;8.10;2.50;;;;;;;25.45;48.89;101828.31;5069253;28;20043;-78
2021/07/17 08:57:35;;;;;;;9.55;2.70;;;;;;;25.89;48.94;101823.38;5067839;28;20583;-80
2021/07/17 09:00:04;;;;;;;9.75;2.85;;;;;;;26.16;48.10;101828.38;5068584;28;20036;-78
2021/07/17 09:02:30;;;;;;;12.48;3.08;;;;;;;26.67;48.09;101840.41;5069103;28;20054;-78
2021/07/17 09:04:56;;;;;;;11.88;2.55;;;;;;;26.96;46.27;101833.00;5068041;28;20032;-78
2021/07/17 09:07:22;;;;;;;7.55;2.03;;;;;;;26.90;46.54;101834.81;5067953;28;20043;-79
2021/07/17 09:09:49;;;;;;;7.50;2.30;;;;;;;27.17;45.20;101836.94;5051553;28;20036;-78
2021/07/17 09:12:21;;;;;;;6.85;2.72;;;;;;;27.16;45.72;101827.06;5067942;28;20090;-79
2021/07/17 09:14:47;;;;;;;14.43;3.15;;;;;;;26.04;46.94;101790.06;5051443;28;20051;-79
2021/07/17 09:17:22;;;;;;;7.13;2.60;;;;;;;26.11;47.41;101788.03;5068880;28;20044;-79
2021/07/17 09:19:59;;;;;;;7.63;2.60;;;;;;;26.40;47.51;101801.75;5068219;28;20290;-78
2021/07/17 09:22:36;;;;;;;6.95;2.30;;;;;;;27.02;45.95;101817.47;5066282;28;20481;-78
2021/07/17 09:25:14;;;;;;;6.65;2.30;;;;;;;27.44;44.89;101822.59;5067183;28;20113;-78
2021/07/17 09:27:39;;;;;;;7.03;2.45;;;;;;;27.15;45.18;101806.19;5063600;28;20111;-79
2021/07/17 09:30:24;;;;;;;8.65;3.25;;;;;;;26.78;47.06;101805.81;5067892;28;20040;-79
2021/07/17 09:33:00;;;;;;;7.25;2.40;;;;;;;27.67;44.22;101827.91;5079728;28;20028;-78
2021/07/17 09:35:26;;;;;;;5.78;2.22;;;;;;;27.99;43.09;101830.06;5052621;28;20082;-78
2021/07/17 09:37:56;;;;;;;11.13;1.98;;;;;;;27.22;43.72;101808.81;5050625;28;20044;-77
2021/07/17 09:40:23;;;;;;;6.55;2.42;;;;;;;27.54;45.14;101817.28;5065725;28;20024;-78
2021/07/17 09:42:49;;;;;;;7.07;2.72;;;;;;;27.60;43.97;101809.97;5068487;28;20112;-78
2021/07/17 09:45:38;;;;;;;6.43;2.80;;;;;;;27.40;45.45;101800.34;5067536;28;20197;-78
2021/07/17 09:48:26;;;;;;;10.82;2.90;;;;;;;27.56;44.39;101813.22;5067948;28;20411;-78
2021/07/17 09:50:53;;;;;;;6.95;2.03;;;;;;;27.05;43.38;101778.63;5067714;28;20028;-77
2021/07/17 09:53:38;;;;;;;6.72;2.65;;;;;;;27.61;43.98;101812.47;5050792;28;20127;-77
2021/07/17 09:56:05;;;;;;;5.60;3.00;;;;;;;27.30;45.22;101779.09;5067459;28;20033;-77
2021/07/17 09:58:33;;;;;;;15.35;2.75;;;;;;;28.21;43.13;101808.09;5068454;28;20286;-78
2021/07/17 10:01:15;;;;;;;7.25;2.20;;;;;;;28.21;40.81;101813.59;5048737;28;20370;-78
2021/07/17 10:03:42;;;;;;;4.10;1.70;;;;;;;27.73;41.66;101799.47;5067100;28;20028;-78
2021/07/17 10:06:08;;;;;;;7.82;2.10;;;;;;;27.94;41.60;101799.81;5068219;28;20024;-78
2021/07/17 10:08:35;;;;;;;5.65;2.08;;;;;;;28.05;42.54;101796.13;5068379;28;20032;-78
2021/07/17 10:11:10;;;;;;;11.52;1.90;;;;;;;28.43;41.53;101802.63;5069361;28;20071;-78
2021/07/17 10:13:37;;;;;;;4.63;2.00;;;;;;;28.52;41.90;101806.59;5052812;28;20429;-78
2021/07/17 10:16:13;;;;;;;;;;;;;;;28.83;40.69;101810.50;5072359;28;20144;-78
2021/07/17 10:18:39;;;;;;;5.07;2.35;;;;;;;29.00;39.16;101807.63;5069811;28;19978;-78
2021/07/17 10:21:04;;;;;;;4.90;1.85;;;;;;;28.94;41.22;101803.19;5071021;28;20040;-77
2021/07/17 10:23:29;;;;;;;7.88;2.35;;;;;;;28.87;40.97;101799.81;5072160;28;20032;-77
2021/07/17 10:25:55;;;;;;;4.55;1.63;;;;;;;28.30;40.31;101781.03;5070685;28;20032;-78
2021/07/17 10:28:23;;;;;;;4.57;1.60;;;;;;;27.89;41.40;101769.56;5071027;28;20028;-77
2021/07/17 10:30:49;;;;;;;4.82;1.38;;;;;;;28.52;39.43;101790.13;5054019;28;20020;-78
2021/07/17 10:33:14;;;;;;;4.80;1.85;;;;;;;28.42;39.88;101773.47;5070988;28;20663;-78
2021/07/17 10:35:43;;;;;;;6.32;2.22;;;;;;;28.53;40.04;101761.56;5070851;28;20521;-78
2021/07/17 10:38:11;;;;;;;5.38;2.17;;;;;;;28.94;38.49;101786.69;5070762;28;20044;-79
2021/07/17 10:40:38;;;;;;;6.72;1.80;;;;;;;28.46;39.05;101769.16;5070441;28;20503;-78
2021/07/17 10:43:05;;;;;;;4.90;1.98;;;;;;;29.44;39.81;101790.97;5071610;28;20032;-78
2021/07/17 10:45:50;;;;;;;3.97;1.92;;;;;;;28.92;40.33;101777.06;5071336;28;20457;-78
2021/07/17 10:48:30;;;;;;;5.95;1.98;;;;;;;28.72;39.21;101759.25;5053012;28;20082;-78
2021/07/17 10:51:01;;;;;;;3.70;1.50;;;;;;;29.52;38.86;101783.31;5053882;28;20591;-78
2021/07/17 10:53:50;;;;;;;3.58;1.40;;;;;;;29.97;37.54;101792.97;5070831;28;20056;-78
2021/07/17 10:56:28;;;;;;;3.72;1.50;;;;;;;29.36;37.21;101769.47;5053777;28;20036;-78
2021/07/17 10:58:57;;;;;;;3.53;1.40;;;;;;;29.69;36.36;101764.75;5071971;28;20024;-77
2021/07/17 11:01:24;;;;;;;6.28;2.17;;;;;;;30.15;35.83;101789.75;5070693;28;20093;-78
2021/07/17 11:03:51;;;;;;;7.22;2.15;;;;;;;30.58;35.78;101776.69;5071846;28;20025;-79
2021/07/17 11:06:25;;;;;;;4.47;1.60;;;;;;;30.38;35.47;101760.94;5053546;28;20457;-79
2021/07/17 11:08:51;;;;;;;4.90;1.45;;;;;;;30.22;36.79;101767.47;5054114;28;20036;-79
2021/07/17 11:11:31;;;;;;;3.50;1.40;;;;;;;29.96;34.37;101769.28;5070475;28;20169;-78
2021/07/17 11:14:05;;;;;;;3.13;1.75;;;;;;;30.37;35.13;101761.19;5070712;28;20403;-79
2021/07/17 11:16:43;;;;;;;3.90;1.10;;;;;;;30.43;34.57;101766.47;5053495;28;20032;-79
2021/07/17 11:19:15;;;;;;;4.50;1.20;;;;;;;30.32;33.60;101747.41;5070671;28;20416;-78
2021/07/17 11:21:42;;;;;;;5.75;1.75;;;;;;;29.98;35.70;101732.13;5069712;28;20036;-79
2021/07/17 11:24:09;;;;;;;8.35;1.33;;;;;;;30.53;34.01;101757.38;5071087;28;20056;-78